sensor_id;sensor_type;location;lat;lon;timestamp;pressure;altitude;pressure_sealevel;temperature;humidity
37892;BME280;45797;47.466;9.486;2023-12-20T00:04:39;96046.19;;;5.88;82.23
37892;BME280;45797;47.466;9.486;2023-12-20T00:10:01;96048.81;;;5.88;81.75
37892;BME280;45797;47.466;9.486;2023-12-20T00:15:22;96046.97;;;5.90;82.04
37892;BME280;45797;47.466;9.486;2023-12-20T00:20:51;96024.50;;;5.89;82.37
37892;BME280;45797;47.466;9.486;2023-12-20T00:26:36;96034.88;;;5.89;82.20
37892;BME280;45797;47.466;9.486;2023-12-20T00:32:02;96045.28;;;5.89;82.08
37892;BME280;45797;47.466;9.486;2023-12-20T00:37:24;96042.69;;;5.89;81.74
37892;BME280;45797;47.466;9.486;2023-12-20T00:42:51;96043.59;;;5.88;81.91
37892;BME280;45797;47.466;9.486;2023-12-20T00:48:12;96050.44;;;5.90;81.94
37892;BME280;45797;47.466;9.486;2023-12-20T00:53:34;96058.16;;;5.92;81.92
37892;BME280;45797;47.466;9.486;2023-12-20T00:59:21;96053.88;;;5.91;82.19
37892;BME280;45797;47.466;9.486;2023-12-20T01:04:41;96045.16;;;5.92;81.86
37892;BME280;45797;47.466;9.486;2023-12-20T01:10:02;95994.75;;;5.94;82.58
37892;BME280;45797;47.466;9.486;2023-12-20T01:15:22;95987.66;;;5.98;82.10
37892;BME280;45797;47.466;9.486;2023-12-20T01:20:48;95997.91;;;6.01;81.85
37892;BME280;45797;47.466;9.486;2023-12-20T01:26:19;95994.84;;;6.10;81.79
37892;BME280;45797;47.466;9.486;2023-12-20T01:31:42;95992.91;;;6.14;81.60
37892;BME280;45797;47.466;9.486;2023-12-20T01:37:02;96000.63;;;6.15;81.79
37892;BME280;45797;47.466;9.486;2023-12-20T01:42:26;95996.25;;;6.16;81.84
37892;BME280;45797;47.466;9.486;2023-12-20T01:47:48;95985.88;;;6.16;81.67
37892;BME280;45797;47.466;9.486;2023-12-20T01:53:12;95972.09;;;6.14;81.77
37892;BME280;45797;47.466;9.486;2023-12-20T01:58:39;95982.44;;;6.15;82.03
37892;BME280;45797;47.466;9.486;2023-12-20T02:04:03;95998.09;;;6.14;81.64
37892;BME280;45797;47.466;9.486;2023-12-20T02:09:26;95994.84;;;6.10;81.92
37892;BME280;45797;47.466;9.486;2023-12-20T02:14:48;95983.44;;;6.13;81.32
37892;BME280;45797;47.466;9.486;2023-12-20T02:20:10;95971.13;;;6.16;81.71
37892;BME280;45797;47.466;9.486;2023-12-20T02:25:30;95960.38;;;6.22;81.36
37892;BME280;45797;47.466;9.486;2023-12-20T02:31:00;95943.63;;;6.28;81.42
37892;BME280;45797;47.466;9.486;2023-12-20T02:36:20;95934.81;;;6.30;81.13
37892;BME280;45797;47.466;9.486;2023-12-20T02:41:41;95945.91;;;6.34;81.34
37892;BME280;45797;47.466;9.486;2023-12-20T02:47:01;95943.81;;;6.41;81.66
37892;BME280;45797;47.466;9.486;2023-12-20T02:52:24;95942.56;;;6.48;80.90
37892;BME280;45797;47.466;9.486;2023-12-20T02:57:46;95930.22;;;6.51;81.07
37892;BME280;45797;47.466;9.486;2023-12-20T03:03:08;95931.84;;;6.54;80.73
37892;BME280;45797;47.466;9.486;2023-12-20T03:08:29;95933.34;;;6.58;80.91
37892;BME280;45797;47.466;9.486;2023-12-20T03:13:59;95939.31;;;6.60;80.88
37892;BME280;45797;47.466;9.486;2023-12-20T03:19:27;95952.09;;;6.65;80.69
37892;BME280;45797;47.466;9.486;2023-12-20T03:24:49;95962.31;;;6.68;80.64
37892;BME280;45797;47.466;9.486;2023-12-20T03:30:12;95983.88;;;6.70;80.95
37892;BME280;45797;47.466;9.486;2023-12-20T03:35:33;95980.34;;;6.71;80.60
37892;BME280;45797;47.466;9.486;2023-12-20T03:40:55;95980.28;;;6.72;80.18
37892;BME280;45797;47.466;9.486;2023-12-20T03:46:32;95993.28;;;6.72;80.27
37892;BME280;45797;47.466;9.486;2023-12-20T03:51:52;96002.72;;;6.75;80.34
37892;BME280;45797;47.466;9.486;2023-12-20T03:57:23;95997.25;;;6.79;80.11
37892;BME280;45797;47.466;9.486;2023-12-20T04:02:43;95986.94;;;6.94;80.53
37892;BME280;45797;47.466;9.486;2023-12-20T04:08:05;95980.44;;;7.01;80.35
37892;BME280;45797;47.466;9.486;2023-12-20T04:13:27;95968.03;;;7.06;80.24
37892;BME280;45797;47.466;9.486;2023-12-20T04:18:47;95964.50;;;7.07;80.11
37892;BME280;45797;47.466;9.486;2023-12-20T04:24:08;95968.69;;;7.09;79.95
37892;BME280;45797;47.466;9.486;2023-12-20T04:29:28;95968.53;;;7.12;79.85
37892;BME280;45797;47.466;9.486;2023-12-20T04:34:49;95991.97;;;7.12;80.23
37892;BME280;45797;47.466;9.486;2023-12-20T04:40:11;96002.53;;;7.09;80.14
37892;BME280;45797;47.466;9.486;2023-12-20T04:52:19;96032.38;;;7.04;80.49
37892;BME280;45797;47.466;9.486;2023-12-20T04:57:41;96051.03;;;6.96;80.58
37892;BME280;45797;47.466;9.486;2023-12-20T05:03:03;96052.66;;;6.81;80.84
37892;BME280;45797;47.466;9.486;2023-12-20T05:08:25;96061.03;;;6.71;81.00
37892;BME280;45797;47.466;9.486;2023-12-20T05:13:55;96069.41;;;6.60;81.13
37892;BME280;45797;47.466;9.486;2023-12-20T05:19:30;96076.63;;;6.55;81.94
37892;BME280;45797;47.466;9.486;2023-12-20T05:24:52;96075.84;;;6.53;81.74
37892;BME280;45797;47.466;9.486;2023-12-20T05:30:16;96088.25;;;6.48;81.67
37892;BME280;45797;47.466;9.486;2023-12-20T05:35:40;96100.91;;;6.38;81.82
37892;BME280;45797;47.466;9.486;2023-12-20T05:41:00;96087.97;;;6.19;82.13
37892;BME280;45797;47.466;9.486;2023-12-20T05:46:21;96088.19;;;6.15;82.22
37892;BME280;45797;47.466;9.486;2023-12-20T05:51:43;96093.34;;;6.16;82.31
37892;BME280;45797;47.466;9.486;2023-12-20T05:57:04;96096.91;;;6.14;82.38
37892;BME280;45797;47.466;9.486;2023-12-20T06:02:26;96109.16;;;6.12;82.08
37892;BME280;45797;47.466;9.486;2023-12-20T06:07:49;96108.59;;;6.05;82.24
37892;BME280;45797;47.466;9.486;2023-12-20T06:13:11;96116.56;;;6.02;82.30
37892;BME280;45797;47.466;9.486;2023-12-20T06:18:33;96117.78;;;5.95;82.29
37892;BME280;45797;47.466;9.486;2023-12-20T06:23:54;96116.00;;;5.95;82.61
37892;BME280;45797;47.466;9.486;2023-12-20T06:29:15;96123.06;;;5.93;82.48
37892;BME280;45797;47.466;9.486;2023-12-20T06:34:43;96124.09;;;5.89;81.93
37892;BME280;45797;47.466;9.486;2023-12-20T06:40:05;96117.50;;;5.82;82.74
37892;BME280;45797;47.466;9.486;2023-12-20T06:45:26;96119.34;;;5.80;82.81
37892;BME280;45797;47.466;9.486;2023-12-20T06:50:47;96124.47;;;5.82;82.66
37892;BME280;45797;47.466;9.486;2023-12-20T06:56:10;96137.38;;;5.83;82.61
37892;BME280;45797;47.466;9.486;2023-12-20T07:01:39;96140.03;;;5.82;83.29
37892;BME280;45797;47.466;9.486;2023-12-20T07:07:01;96126.91;;;5.85;83.08
37892;BME280;45797;47.466;9.486;2023-12-20T07:12:21;96144.00;;;5.90;82.71
37892;BME280;45797;47.466;9.486;2023-12-20T07:17:44;96148.19;;;5.93;82.80
37892;BME280;45797;47.466;9.486;2023-12-20T07:23:04;96143.00;;;5.93;82.54
37892;BME280;45797;47.466;9.486;2023-12-20T07:28:27;96139.34;;;5.97;82.69
37892;BME280;45797;47.466;9.486;2023-12-20T07:33:47;96134.91;;;5.99;82.86
37892;BME280;45797;47.466;9.486;2023-12-20T07:39:26;96142.63;;;6.00;82.64
37892;BME280;45797;47.466;9.486;2023-12-20T07:44:46;96139.81;;;6.05;82.32
37892;BME280;45797;47.466;9.486;2023-12-20T07:50:21;96141.44;;;6.08;82.68
37892;BME280;45797;47.466;9.486;2023-12-20T07:55:41;96146.41;;;6.12;82.40
37892;BME280;45797;47.466;9.486;2023-12-20T08:01:02;96147.94;;;6.16;82.66
37892;BME280;45797;47.466;9.486;2023-12-20T08:06:26;96165.81;;;6.22;82.71
37892;BME280;45797;47.466;9.486;2023-12-20T08:11:56;96168.31;;;6.25;82.22
37892;BME280;45797;47.466;9.486;2023-12-20T08:17:21;96169.81;;;6.29;82.34
37892;BME280;45797;47.466;9.486;2023-12-20T08:22:47;96173.03;;;6.35;82.29
37892;BME280;45797;47.466;9.486;2023-12-20T08:28:09;96165.69;;;6.43;82.24
37892;BME280;45797;47.466;9.486;2023-12-20T08:33:33;96158.34;;;6.51;82.30
37892;BME280;45797;47.466;9.486;2023-12-20T08:38:54;96173.50;;;6.60;82.42
37892;BME280;45797;47.466;9.486;2023-12-20T08:44:15;96172.03;;;6.72;81.89
37892;BME280;45797;47.466;9.486;2023-12-20T08:49:36;96160.22;;;6.82;81.91
37892;BME280;45797;47.466;9.486;2023-12-20T08:54:58;96164.13;;;6.91;81.44
37892;BME280;45797;47.466;9.486;2023-12-20T09:00:19;96152.38;;;6.99;81.36
37892;BME280;45797;47.466;9.486;2023-12-20T09:05:45;96149.09;;;7.13;81.24
37892;BME280;45797;47.466;9.486;2023-12-20T09:11:13;96153.56;;;7.27;80.99
37892;BME280;45797;47.466;9.486;2023-12-20T09:16:34;96137.94;;;7.42;80.95
37892;BME280;45797;47.466;9.486;2023-12-20T09:21:57;96140.56;;;7.58;80.57
37892;BME280;45797;47.466;9.486;2023-12-20T09:27:17;96144.50;;;7.65;80.00
37892;BME280;45797;47.466;9.486;2023-12-20T09:32:39;96159.41;;;7.79;79.99
37892;BME280;45797;47.466;9.486;2023-12-20T09:38:05;96160.47;;;7.91;80.28
37892;BME280;45797;47.466;9.486;2023-12-20T09:43:43;96151.56;;;7.95;79.67
37892;BME280;45797;47.466;9.486;2023-12-20T09:49:03;96160.63;;;8.03;79.79
37892;BME280;45797;47.466;9.486;2023-12-20T09:54:34;96150.88;;;8.07;80.06
37892;BME280;45797;47.466;9.486;2023-12-20T10:00:22;96153.31;;;8.10;79.81
37892;BME280;45797;47.466;9.486;2023-12-20T10:05:43;96154.06;;;8.12;79.75
37892;BME280;45797;47.466;9.486;2023-12-20T10:11:23;96154.75;;;8.16;79.77
37892;BME280;45797;47.466;9.486;2023-12-20T10:16:46;96154.75;;;8.16;79.81
37892;BME280;45797;47.466;9.486;2023-12-20T10:22:07;96150.38;;;8.16;79.83
37892;BME280;45797;47.466;9.486;2023-12-20T10:27:27;96146.97;;;8.14;79.65
37892;BME280;45797;47.466;9.486;2023-12-20T10:32:49;96142.59;;;8.15;79.95
37892;BME280;45797;47.466;9.486;2023-12-20T10:38:11;96137.47;;;8.13;79.78
37892;BME280;45797;47.466;9.486;2023-12-20T10:43:38;96123.78;;;8.10;80.08
37892;BME280;45797;47.466;9.486;2023-12-20T10:49:04;96115.19;;;8.08;79.78
37892;BME280;45797;47.466;9.486;2023-12-20T10:54:31;96110.72;;;8.10;79.94
37892;BME280;45797;47.466;9.486;2023-12-20T10:59:54;96110.53;;;8.13;79.81
37892;BME280;45797;47.466;9.486;2023-12-20T11:05:33;96114.38;;;8.07;80.11
37892;BME280;45797;47.466;9.486;2023-12-20T11:11:04;96115.34;;;8.05;79.94
37892;BME280;45797;47.466;9.486;2023-12-20T11:16:26;96105.19;;;8.00;80.05
37892;BME280;45797;47.466;9.486;2023-12-20T11:21:48;96106.13;;;7.99;80.13
37892;BME280;45797;47.466;9.486;2023-12-20T11:27:08;96106.31;;;7.96;80.33
37892;BME280;45797;47.466;9.486;2023-12-20T11:32:30;96102.59;;;8.00;80.35
37892;BME280;45797;47.466;9.486;2023-12-20T11:37:51;96105.09;;;8.01;80.33
37892;BME280;45797;47.466;9.486;2023-12-20T11:43:29;96116.56;;;7.99;80.06
37892;BME280;45797;47.466;9.486;2023-12-20T11:48:50;96112.53;;;7.93;80.04
37892;BME280;45797;47.466;9.486;2023-12-20T11:54:21;96109.34;;;7.88;80.37
37892;BME280;45797;47.466;9.486;2023-12-20T11:59:51;96112.47;;;7.79;80.56
37892;BME280;45797;47.466;9.486;2023-12-20T12:05:13;96098.75;;;7.76;80.71
37892;BME280;45797;47.466;9.486;2023-12-20T12:10:34;96105.81;;;7.73;80.70
37892;BME280;45797;47.466;9.486;2023-12-20T12:16:09;96096.59;;;7.68;80.46
37892;BME280;45797;47.466;9.486;2023-12-20T12:21:31;96103.31;;;7.72;80.79
37892;BME280;45797;47.466;9.486;2023-12-20T12:26:57;96094.38;;;7.76;80.58
37892;BME280;45797;47.466;9.486;2023-12-20T12:32:19;96103.81;;;7.79;80.60
37892;BME280;45797;47.466;9.486;2023-12-20T12:37:41;96095.72;;;7.83;80.55
37892;BME280;45797;47.466;9.486;2023-12-20T12:43:02;96096.97;;;7.92;80.12
37892;BME280;45797;47.466;9.486;2023-12-20T12:48:33;96096.88;;;7.93;80.22
37892;BME280;45797;47.466;9.486;2023-12-20T12:53:56;96096.47;;;7.85;80.09
37892;BME280;45797;47.466;9.486;2023-12-20T12:59:16;96084.53;;;7.81;79.80
37892;BME280;45797;47.466;9.486;2023-12-20T13:04:49;96093.91;;;7.69;80.23
37892;BME280;45797;47.466;9.486;2023-12-20T13:10:17;96105.81;;;7.58;80.41
37892;BME280;45797;47.466;9.486;2023-12-20T13:22:21;96099.88;;;7.40;80.96
37892;BME280;45797;47.466;9.486;2023-12-20T13:27:41;96100.53;;;7.43;80.49
37892;BME280;45797;47.466;9.486;2023-12-20T13:33:02;96090.03;;;7.45;80.62
37892;BME280;45797;47.466;9.486;2023-12-20T13:38:23;96111.72;;;7.45;80.82
37892;BME280;45797;47.466;9.486;2023-12-20T13:43:45;96117.41;;;7.36;80.70
37892;BME280;45797;47.466;9.486;2023-12-20T13:49:08;96121.13;;;7.32;80.45
37892;BME280;45797;47.466;9.486;2023-12-20T13:54:39;96114.66;;;7.39;80.24
37892;BME280;45797;47.466;9.486;2023-12-20T14:00:01;96133.50;;;7.44;80.47
37892;BME280;45797;47.466;9.486;2023-12-20T14:05:27;96138.03;;;7.41;80.48
37892;BME280;45797;47.466;9.486;2023-12-20T14:10:48;96131.38;;;7.35;79.96
37892;BME280;45797;47.466;9.486;2023-12-20T14:16:13;96146.44;;;7.30;80.32
37892;BME280;45797;47.466;9.486;2023-12-20T14:21:34;96160.22;;;7.32;80.43
37892;BME280;45797;47.466;9.486;2023-12-20T14:27:04;96158.44;;;7.33;80.53
37892;BME280;45797;47.466;9.486;2023-12-20T14:32:24;96154.56;;;7.24;79.81
37892;BME280;45797;47.466;9.486;2023-12-20T14:37:50;96163.94;;;7.11;80.24
37892;BME280;45797;47.466;9.486;2023-12-20T14:43:12;96169.31;;;7.08;80.19
37892;BME280;45797;47.466;9.486;2023-12-20T14:48:32;96171.41;;;7.01;80.36
37892;BME280;45797;47.466;9.486;2023-12-20T14:53:53;96182.22;;;6.94;80.34
37892;BME280;45797;47.466;9.486;2023-12-20T15:04:58;96193.69;;;6.72;80.95
37892;BME280;45797;47.466;9.486;2023-12-20T15:10:19;96208.88;;;6.64;80.80
37892;BME280;45797;47.466;9.486;2023-12-20T15:15:47;96200.28;;;6.45;81.17
37892;BME280;45797;47.466;9.486;2023-12-20T15:21:18;96191.06;;;6.20;81.43
37892;BME280;45797;47.466;9.486;2023-12-20T15:26:49;96180.63;;;6.03;81.50
37892;BME280;45797;47.466;9.486;2023-12-20T15:32:11;96183.06;;;5.87;81.37
37892;BME280;45797;47.466;9.486;2023-12-20T15:37:31;96190.53;;;5.76;81.87
37892;BME280;45797;47.466;9.486;2023-12-20T15:42:53;96189.00;;;5.72;81.27
37892;BME280;45797;47.466;9.486;2023-12-20T15:48:15;96179.63;;;5.69;81.58
37892;BME280;45797;47.466;9.486;2023-12-20T15:53:38;96191.69;;;5.70;81.40
37892;BME280;45797;47.466;9.486;2023-12-20T15:59:00;96194.78;;;5.79;81.07
37892;BME280;45797;47.466;9.486;2023-12-20T16:04:21;96202.19;;;5.86;80.88
37892;BME280;45797;47.466;9.486;2023-12-20T16:09:46;96214.94;;;5.92;81.15
37892;BME280;45797;47.466;9.486;2023-12-20T16:15:09;96212.19;;;5.95;80.73
37892;BME280;45797;47.466;9.486;2023-12-20T16:20:29;96210.59;;;5.93;80.97
37892;BME280;45797;47.466;9.486;2023-12-20T16:26:07;96217.75;;;5.88;80.82
37892;BME280;45797;47.466;9.486;2023-12-20T16:31:30;96218.56;;;5.88;80.64
37892;BME280;45797;47.466;9.486;2023-12-20T16:36:57;96235.06;;;5.87;80.11
37892;BME280;45797;47.466;9.486;2023-12-20T16:42:28;96236.06;;;5.85;80.10
37892;BME280;45797;47.466;9.486;2023-12-20T16:47:49;96227.56;;;5.81;79.74
37892;BME280;45797;47.466;9.486;2023-12-20T16:53:10;96231.16;;;5.79;80.10
37892;BME280;45797;47.466;9.486;2023-12-20T16:58:30;96244.34;;;5.74;80.09
37892;BME280;45797;47.466;9.486;2023-12-20T17:03:52;96240.25;;;5.68;79.77
37892;BME280;45797;47.466;9.486;2023-12-20T17:15:28;96243.91;;;5.64;80.27
37892;BME280;45797;47.466;9.486;2023-12-20T17:20:53;96230.84;;;5.66;79.52
37892;BME280;45797;47.466;9.486;2023-12-20T17:26:16;96233.53;;;5.64;79.28
37892;BME280;45797;47.466;9.486;2023-12-20T17:31:38;96224.19;;;5.60;79.07
37892;BME280;45797;47.466;9.486;2023-12-20T17:36:59;96222.78;;;5.53;80.14
37892;BME280;45797;47.466;9.486;2023-12-20T17:42:28;96217.50;;;5.36;80.10
37892;BME280;45797;47.466;9.486;2023-12-20T17:47:50;96226.75;;;5.23;80.22
37892;BME280;45797;47.466;9.486;2023-12-20T17:53:20;96229.88;;;5.10;80.22
37892;BME280;45797;47.466;9.486;2023-12-20T17:58:52;96229.50;;;4.99;80.08
37892;BME280;45797;47.466;9.486;2023-12-20T18:04:13;96230.53;;;4.95;80.16
37892;BME280;45797;47.466;9.486;2023-12-20T18:09:34;96231.56;;;4.91;80.52
37892;BME280;45797;47.466;9.486;2023-12-20T18:14:56;96241.94;;;4.91;80.52
37892;BME280;45797;47.466;9.486;2023-12-20T18:20:18;96253.13;;;4.93;80.38
37892;BME280;45797;47.466;9.486;2023-12-20T18:25:39;96266.88;;;4.95;80.15
37892;BME280;45797;47.466;9.486;2023-12-20T18:31:01;96268.50;;;4.98;80.37
37892;BME280;45797;47.466;9.486;2023-12-20T18:36:29;96260.78;;;4.96;80.29
37892;BME280;45797;47.466;9.486;2023-12-20T18:41:57;96257.28;;;4.97;79.62
37892;BME280;45797;47.466;9.486;2023-12-20T18:47:18;96248.56;;;4.98;79.97
37892;BME280;45797;47.466;9.486;2023-12-20T18:52:38;96260.63;;;4.99;79.73
37892;BME280;45797;47.466;9.486;2023-12-20T18:58:03;96253.75;;;4.98;80.13
37892;BME280;45797;47.466;9.486;2023-12-20T19:03:28;96267.66;;;4.97;79.64
37892;BME280;45797;47.466;9.486;2023-12-20T19:08:50;96265.97;;;4.96;79.96
37892;BME280;45797;47.466;9.486;2023-12-20T19:14:28;96268.69;;;4.93;79.56
37892;BME280;45797;47.466;9.486;2023-12-20T19:20:06;96271.22;;;4.95;80.01
37892;BME280;45797;47.466;9.486;2023-12-20T19:25:27;96273.63;;;4.99;80.12
37892;BME280;45797;47.466;9.486;2023-12-20T19:30:48;96262.22;;;5.03;79.75
37892;BME280;45797;47.466;9.486;2023-12-20T19:36:09;96242.16;;;5.07;79.41
37892;BME280;45797;47.466;9.486;2023-12-20T19:41:30;96229.03;;;5.10;78.91
37892;BME280;45797;47.466;9.486;2023-12-20T19:46:54;96205.47;;;5.14;79.24
37892;BME280;45797;47.466;9.486;2023-12-20T19:52:14;96212.34;;;5.15;78.95
37892;BME280;45797;47.466;9.486;2023-12-20T19:57:37;96209.63;;;5.19;78.93
37892;BME280;45797;47.466;9.486;2023-12-20T20:02:58;96197.41;;;5.21;78.78
37892;BME280;45797;47.466;9.486;2023-12-20T20:08:19;96194.69;;;5.24;78.96
37892;BME280;45797;47.466;9.486;2023-12-20T20:13:43;96186.75;;;5.27;78.75
37892;BME280;45797;47.466;9.486;2023-12-20T20:19:03;96192.72;;;5.29;78.79
37892;BME280;45797;47.466;9.486;2023-12-20T20:24:26;96170.16;;;5.31;78.72
37892;BME280;45797;47.466;9.486;2023-12-20T20:29:46;96165.63;;;5.34;78.60
37892;BME280;45797;47.466;9.486;2023-12-20T20:35:07;96153.50;;;5.35;78.22
37892;BME280;45797;47.466;9.486;2023-12-20T20:40:32;96133.56;;;5.35;78.13
37892;BME280;45797;47.466;9.486;2023-12-20T20:45:52;96130.88;;;5.37;78.31
37892;BME280;45797;47.466;9.486;2023-12-20T20:51:15;96122.91;;;5.41;78.52
37892;BME280;45797;47.466;9.486;2023-12-20T20:56:36;96127.25;;;5.41;77.90
37892;BME280;45797;47.466;9.486;2023-12-20T21:02:01;96113.34;;;5.42;78.44
37892;BME280;45797;47.466;9.486;2023-12-20T21:07:25;96108.00;;;5.45;78.48
37892;BME280;45797;47.466;9.486;2023-12-20T21:12:46;96095.66;;;5.50;78.07
37892;BME280;45797;47.466;9.486;2023-12-20T21:18:17;96104.13;;;5.54;77.46
37892;BME280;45797;47.466;9.486;2023-12-20T21:23:47;96117.81;;;5.57;77.82
37892;BME280;45797;47.466;9.486;2023-12-20T21:29:25;96136.72;;;5.61;77.57
37892;BME280;45797;47.466;9.486;2023-12-20T21:34:45;96147.72;;;5.66;77.33
37892;BME280;45797;47.466;9.486;2023-12-20T21:40:07;96122.44;;;5.69;77.35
37892;BME280;45797;47.466;9.486;2023-12-20T21:45:28;96126.81;;;5.69;77.36
37892;BME280;45797;47.466;9.486;2023-12-20T21:50:49;96124.06;;;5.72;77.00
37892;BME280;45797;47.466;9.486;2023-12-20T21:56:11;96123.97;;;5.73;76.99
37892;BME280;45797;47.466;9.486;2023-12-20T22:01:35;96124.81;;;5.74;76.81
37892;BME280;45797;47.466;9.486;2023-12-20T22:06:56;96131.56;;;5.78;77.02
37892;BME280;45797;47.466;9.486;2023-12-20T22:12:25;96108.09;;;5.80;76.76
37892;BME280;45797;47.466;9.486;2023-12-20T22:17:45;96094.19;;;5.81;76.45
37892;BME280;45797;47.466;9.486;2023-12-20T22:23:08;96095.72;;;5.85;76.47
37892;BME280;45797;47.466;9.486;2023-12-20T22:28:29;96092.19;;;5.86;76.43
37892;BME280;45797;47.466;9.486;2023-12-20T22:33:57;96099.91;;;5.87;76.73
37892;BME280;45797;47.466;9.486;2023-12-20T22:39:18;96085.94;;;5.90;76.33
37892;BME280;45797;47.466;9.486;2023-12-20T22:44:38;96060.66;;;5.93;76.28
37892;BME280;45797;47.466;9.486;2023-12-20T22:50:05;96062.34;;;5.94;76.22
37892;BME280;45797;47.466;9.486;2023-12-20T22:55:29;96061.38;;;5.97;76.18
37892;BME280;45797;47.466;9.486;2023-12-20T23:00:50;96057.91;;;5.96;76.21
37892;BME280;45797;47.466;9.486;2023-12-20T23:06:11;96050.06;;;5.98;76.06
37892;BME280;45797;47.466;9.486;2023-12-20T23:11:32;96048.38;;;5.97;75.64
37892;BME280;45797;47.466;9.486;2023-12-20T23:16:53;96037.81;;;6.00;76.18
37892;BME280;45797;47.466;9.486;2023-12-20T23:22:14;96036.91;;;6.01;76.32
37892;BME280;45797;47.466;9.486;2023-12-20T23:27:36;96025.88;;;5.96;76.04
37892;BME280;45797;47.466;9.486;2023-12-20T23:32:57;96026.16;;;5.90;76.70
37892;BME280;45797;47.466;9.486;2023-12-20T23:38:18;96011.78;;;5.83;75.99
37892;BME280;45797;47.466;9.486;2023-12-20T23:43:41;96010.41;;;5.76;76.82
37892;BME280;45797;47.466;9.486;2023-12-20T23:49:02;96013.31;;;5.69;76.43
37892;BME280;45797;47.466;9.486;2023-12-20T23:54:24;96008.25;;;5.66;77.22
37892;BME280;45797;47.466;9.486;2023-12-20T23:59:46;95994.59;;;5.63;76.67
